CLT TRACON Summary / KCLT TAF
CLT TRACON Summary:
Expect VFR conditions under mostly clear skies after patchy MVFR fog in the TRACON airspace burns off by 12-13z. Surface winds will be from the north at 3-8kts and occasionally calm. No significant flight hazards are expected in the TRACON airspace.

Updated:8/27/2014 6:11 AM
CLT Terminal Aerodrome Forecast:

FTUS42 KGSP 271100
TAFCLT
TAF
KCLT 271120Z 2712/2812 35005KT P6SM FEW250
     FM271500 01006KT P6SM SKC
     FM280800 00000KT P6SM FEW250=
CLT TRACON Area Remark:
NONE.
Convective Gate Forecast / Collaborative Convective Forecast Product / Vertical Wind Profile
Convective Gate Forecast
-->
AIRMETs & SIGMETS/ Southeast Radar loop / Satellite Image (click on image to enlarge)

Southeast Radar Loop

 



USA.gov is the U.S. government's official web portal to all federal, state and local government web resources and services.